Time;durP1;ratioP1;P1;durP2;ratioP2;P2;SDS_P1;SDS_P2;PMS_P1;PMS_P2;Temp;Humidity;BMP_temperature;BMP_pressure;BME280_temperature;BME280_humidity;BME280_pressure;Samples;Min_cycle;Max_cycle;Signal;HPM_P1;HPM_P2
2021/04/02 00:02:23;;;;;;;3.92;2.17;;;18.40;28.00;;;;;;4998262;28;20042;-65
2021/04/02 00:04:49;;;;;;;6.00;2.35;;;18.40;27.80;;;;;;5012079;28;20050;-65
2021/04/02 00:07:15;;;;;;;3.67;2.50;;;18.50;28.20;;;;;;4998992;28;20171;-65
2021/04/02 00:09:41;;;;;;;5.07;2.20;;;18.40;27.60;;;;;;4998388;28;20038;-65
2021/04/02 00:12:07;;;;;;;7.57;2.33;;;18.40;28.10;;;;;;4997115;28;20049;-64
2021/04/02 00:14:32;;;;;;;4.72;2.33;;;18.40;27.60;;;;;;5001489;28;20046;-56
2021/04/02 00:16:58;;;;;;;4.00;2.00;;;18.40;28.80;;;;;;4992707;28;20041;-65
2021/04/02 00:19:24;;;;;;;3.08;1.92;;;18.40;28.20;;;;;;5001031;28;20042;-65
2021/04/02 00:21:49;;;;;;;3.50;2.00;;;18.30;27.40;;;;;;4999487;28;20509;-65
2021/04/02 00:24:15;;;;;;;5.10;2.15;;;18.30;27.70;;;;;;4999635;28;20116;-65
2021/04/02 00:26:42;;;;;;;3.88;2.30;;;18.30;27.30;;;;;;4996237;28;20066;-65
2021/04/02 00:29:09;;;;;;;4.78;2.38;;;18.30;27.40;;;;;;5002903;28;20038;-63
2021/04/02 00:31:35;;;;;;;3.38;1.83;;;18.30;28.10;;;;;;4997425;28;20045;-65
2021/04/02 00:34:02;;;;;;;4.85;2.30;;;18.30;28.10;;;;;;5004490;28;20050;-65
2021/04/02 00:36:28;;;;;;;3.33;2.17;;;18.30;28.10;;;;;;5004711;28;20053;-66
2021/04/02 00:38:54;;;;;;;2.92;2.03;;;18.20;27.80;;;;;;5006805;28;20045;-66
2021/04/02 00:41:20;;;;;;;7.10;2.60;;;18.30;27.70;;;;;;5000962;28;20085;-66
2021/04/02 00:43:49;;;;;;;3.95;1.90;;;18.20;27.90;;;;;;4998178;28;20046;-66
2021/04/02 00:46:18;;;;;;;3.10;1.95;;;18.20;27.60;;;;;;5001485;28;20072;-66
2021/04/02 00:48:45;;;;;;;3.17;2.10;;;18.20;27.10;;;;;;4999896;28;20032;-66
2021/04/02 00:51:18;;;;;;;4.90;2.30;;;18.20;27.30;;;;;;5004426;28;20049;-66
2021/04/02 00:53:45;;;;;;;3.63;2.00;;;18.30;27.50;;;;;;4994764;28;20395;-66
2021/04/02 00:56:12;;;;;;;6.45;2.35;;;18.20;27.10;;;;;;4999276;28;20269;-66
2021/04/02 00:58:39;;;;;;;4.45;2.63;;;18.10;27.80;;;;;;4999077;28;20049;-66
2021/04/02 01:01:07;;;;;;;4.32;2.30;;;18.10;28.50;;;;;;5000633;28;20741;-66
2021/04/02 01:03:33;;;;;;;2.20;1.90;;;18.10;27.10;;;;;;4998643;28;20042;-67
2021/04/02 01:06:02;;;;;;;3.22;2.25;;;18.10;27.70;;;;;;5006203;28;20042;-67
2021/04/02 01:08:30;;;;;;;3.85;2.40;;;18.00;27.20;;;;;;4997752;28;20510;-66
2021/04/02 01:10:58;;;;;;;6.68;2.53;;;18.10;28.50;;;;;;5005687;28;20048;-66
2021/04/02 01:13:31;;;;;;;3.30;2.08;;;18.00;28.20;;;;;;5002737;28;20431;-66
2021/04/02 01:16:09;;;;;;;5.40;2.08;;;18.00;27.40;;;;;;5003371;28;20084;-66
2021/04/02 01:19:05;;;;;;;4.45;2.00;;;18.00;28.10;;;;;;4994668;28;20042;-66
2021/04/02 01:21:41;;;;;;;4.10;2.80;;;18.00;30.00;;;;;;4998598;28;20182;-67
2021/04/02 01:24:13;;;;;;;2.67;2.15;;;17.90;30.00;;;;;;4990174;28;20034;-67
2021/04/02 01:27:16;;;;;;;2.30;2.10;;;17.90;29.90;;;;;;5001648;28;20118;-65
2021/04/02 01:29:54;;;;;;;4.10;2.13;;;17.80;28.50;;;;;;4974344;28;20507;-66
2021/04/02 01:32:25;;;;;;;3.38;2.17;;;17.80;28.40;;;;;;5000941;28;20503;-66
2021/04/02 01:34:55;;;;;;;4.93;2.45;;;17.80;29.10;;;;;;4997328;28;20084;-67
2021/04/02 01:37:30;;;;;;;3.83;2.22;;;17.80;28.90;;;;;;5005109;28;20447;-66
2021/04/02 01:39:57;;;;;;;;;;;17.80;29.50;;;;;;4998262;28;20088;-67
2021/04/02 01:42:25;;;;;;;3.78;2.42;;;17.70;28.80;;;;;;5005404;28;19928;-66
2021/04/02 01:44:52;;;;;;;8.70;2.85;;;17.70;29.70;;;;;;4997152;28;20046;-66
2021/04/02 01:47:19;;;;;;;6.80;2.63;;;17.80;29.90;;;;;;4997079;28;20045;-67
2021/04/02 01:49:46;;;;;;;4.28;2.60;;;17.70;28.90;;;;;;4995774;28;20041;-66
2021/04/02 01:52:12;;;;;;;5.40;2.90;;;17.70;29.80;;;;;;4998627;28;20039;-66
2021/04/02 01:54:40;;;;;;;7.47;2.80;;;17.70;29.80;;;;;;4994089;28;20049;-66
2021/04/02 01:57:08;;;;;;;3.92;2.65;;;17.80;30.30;;;;;;5001740;28;20043;-66
2021/04/02 01:59:36;;;;;;;4.82;2.42;;;17.70;30.40;;;;;;5002098;28;20064;-66
2021/04/02 02:02:03;;;;;;;4.65;2.50;;;17.70;31.30;;;;;;4999486;28;20054;-67
2021/04/02 02:04:31;;;;;;;6.00;2.33;;;17.60;30.10;;;;;;5003082;28;20045;-67
2021/04/02 02:06:59;;;;;;;3.65;2.90;;;17.60;30.90;;;;;;4998883;28;20053;-67
2021/04/02 02:09:32;;;;;;;4.40;2.50;;;17.70;31.50;;;;;;4999860;28;20038;-67
2021/04/02 02:12:01;;;;;;;5.00;2.88;;;17.60;30.00;;;;;;4993085;28;20506;-67
2021/04/02 02:14:30;;;;;;;3.70;2.67;;;17.50;29.80;;;;;;5001839;28;20073;-67
2021/04/02 02:16:59;;;;;;;3.90;2.30;;;17.60;31.00;;;;;;4998562;28;20050;-67
2021/04/02 02:19:27;;;;;;;7.97;2.88;;;17.60;30.30;;;;;;5003279;28;20038;-67
2021/04/02 02:21:55;;;;;;;5.28;2.67;;;17.60;31.40;;;;;;5003044;28;20052;-67
2021/04/02 02:24:21;;;;;;;5.20;2.35;;;17.50;30.20;;;;;;5002169;28;20561;-67
2021/04/02 02:26:47;;;;;;;4.00;2.83;;;17.60;31.40;;;;;;5001983;28;20547;-67
2021/04/02 02:29:13;;;;;;;5.20;2.92;;;17.50;30.70;;;;;;5010840;28;20168;-66
2021/04/02 02:31:40;;;;;;;4.47;2.88;;;17.50;30.90;;;;;;5002387;28;20042;-66
2021/04/02 02:34:07;;;;;;;4.43;3.15;;;17.40;30.90;;;;;;5001399;28;20084;-66
2021/04/02 02:36:34;;;;;;;4.30;2.88;;;17.40;31.00;;;;;;5001371;28;20153;-67
2021/04/02 02:39:00;;;;;;;9.23;3.55;;;17.50;31.40;;;;;;5002738;28;20500;-66
2021/04/02 02:41:30;;;;;;;6.32;3.13;;;17.50;31.70;;;;;;5001308;28;20065;-67
2021/04/02 02:43:57;;;;;;;4.43;3.13;;;17.50;32.30;;;;;;5008954;28;20038;-67
2021/04/02 02:46:27;;;;;;;3.83;2.72;;;17.40;31.80;;;;;;5003097;28;20030;-67
2021/04/02 02:48:55;;;;;;;6.43;3.30;;;17.40;32.00;;;;;;5002551;28;20069;-67
2021/04/02 02:51:23;;;;;;;7.30;3.10;;;17.40;32.50;;;;;;5004448;28;20047;-66
2021/04/02 02:53:50;;;;;;;5.72;3.15;;;17.40;33.00;;;;;;5014407;28;20468;-67
2021/04/02 02:56:17;;;;;;;6.30;3.30;;;17.40;32.60;;;;;;5007218;28;20045;-66
2021/04/02 02:58:44;;;;;;;8.20;4.05;;;17.40;32.60;;;;;;5003343;28;20144;-67
2021/04/02 03:01:14;;;;;;;6.80;3.42;;;17.30;32.50;;;;;;5009278;28;20510;-66
2021/04/02 03:03:40;;;;;;;5.18;3.50;;;17.30;32.90;;;;;;5021953;28;20502;-67
2021/04/02 03:06:08;;;;;;;4.07;3.35;;;17.20;33.20;;;;;;5008203;28;20072;-67
2021/04/02 03:08:44;;;;;;;7.07;3.70;;;17.20;33.30;;;;;;4997393;28;20034;-63
2021/04/02 03:11:11;;;;;;;6.03;3.58;;;17.30;34.40;;;;;;5008263;28;20038;-66
2021/04/02 03:13:39;;;;;;;6.78;3.60;;;17.30;34.20;;;;;;5003747;28;20487;-67
2021/04/02 03:16:05;;;;;;;6.22;3.90;;;17.20;35.20;;;;;;4999770;28;20506;-66
2021/04/02 03:18:31;;;;;;;6.35;3.97;;;17.20;34.50;;;;;;4997356;28;20078;-67
2021/04/02 03:20:59;;;;;;;6.78;4.05;;;17.10;34.20;;;;;;5003555;28;20088;-66
2021/04/02 03:23:25;;;;;;;6.93;4.80;;;17.20;34.80;;;;;;5003188;28;20052;-67
2021/04/02 03:25:51;;;;;;;8.05;4.15;;;17.10;35.30;;;;;;5006489;28;20041;-66
2021/04/02 03:28:18;;;;;;;5.15;3.60;;;17.10;35.70;;;;;;4995991;28;20066;-67
2021/04/02 03:30:45;;;;;;;4.63;3.78;;;17.10;35.90;;;;;;5005387;28;20042;-66
2021/04/02 03:33:20;;;;;;;5.95;3.88;;;17.10;35.90;;;;;;5006674;28;20108;-66
2021/04/02 03:35:47;;;;;;;8.75;3.90;;;17.10;36.10;;;;;;5008638;28;20119;-65
2021/04/02 03:38:16;;;;;;;7.45;3.90;;;17.10;36.30;;;;;;5007600;28;20042;-66
2021/04/02 03:40:44;;;;;;;6.72;4.28;;;17.00;36.30;;;;;;5002587;28;20452;-66
2021/04/02 03:43:10;;;;;;;7.18;4.32;;;17.00;36.90;;;;;;5005754;28;20034;-66
2021/04/02 03:45:40;;;;;;;6.63;4.00;;;17.00;36.70;;;;;;4998026;28;20062;-65
2021/04/02 03:48:07;;;;;;;7.95;4.53;;;17.00;36.90;;;;;;5008410;28;20037;-65
2021/04/02 03:50:37;;;;;;;8.15;4.40;;;16.90;36.70;;;;;;4999454;28;20385;-66
2021/04/02 03:53:05;;;;;;;6.10;4.35;;;17.00;37.10;;;;;;5002975;28;20089;-66
2021/04/02 03:55:31;;;;;;;9.65;4.07;;;17.10;36.80;;;;;;5000515;28;20069;-67
2021/04/02 03:58:00;;;;;;;7.25;3.90;;;17.00;36.40;;;;;;5002826;28;20108;-66
2021/04/02 04:00:32;;;;;;;4.55;4.15;;;17.10;36.60;;;;;;4997591;28;20561;-66
2021/04/02 04:03:01;;;;;;;9.40;4.68;;;17.00;37.00;;;;;;5005547;28;20435;-66
2021/04/02 04:05:28;;;;;;;12.57;4.45;;;17.00;37.10;;;;;;5005078;28;20430;-66
2021/04/02 04:07:55;;;;;;;7.00;4.38;;;17.00;37.40;;;;;;5001481;28;20038;-66
2021/04/02 04:10:20;;;;;;;9.65;4.72;;;17.00;37.40;;;;;;4996291;28;20049;-66
2021/04/02 04:12:51;;;;;;;8.13;4.13;;;16.90;37.30;;;;;;5007203;28;20403;-66
2021/04/02 04:15:17;;;;;;;8.30;4.40;;;16.90;37.50;;;;;;5003209;28;20112;-66
2021/04/02 04:17:45;;;;;;;7.50;4.50;;;16.90;37.50;;;;;;5004156;28;20053;-66
2021/04/02 04:20:12;;;;;;;9.93;4.72;;;16.90;37.80;;;;;;5004011;28;20034;-66
2021/04/02 04:22:41;;;;;;;8.30;4.63;;;16.80;37.70;;;;;;5000184;28;20038;-66
2021/04/02 04:25:08;;;;;;;9.93;4.70;;;16.90;38.60;;;;;;5013681;28;20076;-67
2021/04/02 04:27:38;;;;;;;6.97;4.47;;;16.90;38.30;;;;;;5013351;28;20572;-65
2021/04/02 04:30:05;;;;;;;8.35;4.20;;;16.80;38.30;;;;;;5011915;28;20033;-65
2021/04/02 04:32:32;;;;;;;6.75;4.28;;;16.80;38.40;;;;;;5010542;28;20026;-65
2021/04/02 04:34:59;;;;;;;6.40;4.20;;;16.80;38.80;;;;;;5013273;28;20431;-65
2021/04/02 04:37:25;;;;;;;9.32;4.82;;;16.80;38.30;;;;;;5013073;28;20112;-66
2021/04/02 04:39:53;;;;;;;4.95;4.45;;;16.80;38.70;;;;;;5013449;28;20029;-65
2021/04/02 04:42:20;;;;;;;6.15;4.60;;;16.80;38.50;;;;;;5012467;28;20384;-65
2021/04/02 04:44:48;;;;;;;8.90;5.15;;;16.70;38.60;;;;;;5013084;28;20034;-66
2021/04/02 04:47:14;;;;;;;10.23;5.00;;;16.70;39.00;;;;;;5012792;28;20479;-65
2021/04/02 04:49:40;;;;;;;5.90;4.80;;;16.70;38.60;;;;;;5013284;28;20028;-65
2021/04/02 04:52:08;;;;;;;6.00;4.15;;;16.70;38.90;;;;;;5012886;28;20052;-65
2021/04/02 04:54:34;;;;;;;6.03;5.15;;;16.60;38.80;;;;;;5012718;28;20029;-65
2021/04/02 04:57:01;;;;;;;8.43;4.75;;;16.60;38.90;;;;;;5012482;28;20036;-65
2021/04/02 04:59:30;;;;;;;6.72;4.45;;;16.60;38.60;;;;;;5012491;28;20490;-65
2021/04/02 05:01:56;;;;;;;8.55;4.88;;;16.60;38.90;;;;;;5012941;28;20353;-65
2021/04/02 05:04:24;;;;;;;8.63;5.03;;;16.60;38.50;;;;;;5011588;28;20112;-65
2021/04/02 05:06:55;;;;;;;9.30;4.88;;;16.60;38.50;;;;;;5011272;28;20041;-65
2021/04/02 05:09:23;;;;;;;7.28;4.95;;;16.60;38.80;;;;;;5011991;28;20499;-65
2021/04/02 05:11:51;;;;;;;5.20;4.60;;;16.50;38.50;;;;;;5013090;28;20025;-65
2021/04/02 05:14:18;;;;;;;8.68;5.03;;;16.60;38.70;;;;;;5012079;28;20022;-65
2021/04/02 05:16:45;;;;;;;6.85;4.50;;;16.50;38.70;;;;;;5010978;28;20054;-66
2021/04/02 05:19:12;;;;;;;6.68;4.63;;;16.50;38.40;;;;;;5012343;28;20456;-65
2021/04/02 05:21:43;;;;;;;6.88;5.28;;;16.50;38.20;;;;;;5012240;28;20109;-65
2021/04/02 05:24:09;;;;;;;7.70;4.53;;;16.50;38.50;;;;;;5012266;28;20062;-65
2021/04/02 05:26:34;;;;;;;10.60;4.95;;;16.50;38.80;;;;;;5012163;28;20598;-65
2021/04/02 05:29:00;;;;;;;12.07;5.03;;;16.50;38.90;;;;;;5011326;28;20117;-65
2021/04/02 05:31:26;;;;;;;10.07;5.25;;;16.50;39.00;;;;;;5012235;28;20391;-66
2021/04/02 05:33:52;;;;;;;12.38;4.80;;;16.50;39.00;;;;;;5010371;28;20484;-65
2021/04/02 05:36:17;;;;;;;8.07;5.10;;;16.60;38.60;;;;;;5011570;28;20037;-66
2021/04/02 05:38:43;;;;;;;8.45;5.35;;;16.50;38.50;;;;;;5011665;28;20088;-65
2021/04/02 05:41:12;;;;;;;8.88;4.68;;;16.50;38.50;;;;;;5013169;28;20037;-65
2021/04/02 05:43:59;;;;;;;9.98;5.38;;;16.50;38.00;;;;;;5012486;28;20041;-66
2021/04/02 05:46:26;;;;;;;12.23;5.57;;;16.60;38.70;;;;;;5002871;28;20026;-65
2021/04/02 05:49:03;;;;;;;8.68;5.18;;;16.60;38.60;;;;;;5012320;28;20030;-65
2021/04/02 05:51:29;;;;;;;8.90;5.78;;;16.60;39.30;;;;;;5016368;28;20034;-65
2021/04/02 05:53:56;;;;;;;8.50;5.20;;;16.60;38.40;;;;;;5015381;28;20109;-66
2021/04/02 05:56:22;;;;;;;9.65;5.65;;;16.70;38.80;;;;;;5007230;28;20034;-65
2021/04/02 05:58:50;;;;;;;10.82;5.75;;;16.60;38.40;;;;;;5016476;28;20041;-65
2021/04/02 06:01:16;;;;;;;12.38;6.22;;;16.70;39.20;;;;;;5015955;28;20034;-65
2021/04/02 06:03:42;;;;;;;15.00;6.63;;;16.70;38.90;;;;;;5015865;28;20044;-65
2021/04/02 06:06:12;;;;;;;7.55;5.25;;;16.60;38.20;;;;;;5016112;28;20450;-65
2021/04/02 06:08:45;;;;;;;10.90;6.28;;;16.50;38.10;;;;;;5016722;28;20013;-65
2021/04/02 06:11:12;;;;;;;9.00;5.53;;;16.50;38.10;;;;;;5015692;28;20022;-65
2021/04/02 06:13:38;;;;;;;10.18;5.68;;;16.60;38.30;;;;;;5015869;28;20435;-64
2021/04/02 06:16:04;;;;;;;11.13;6.25;;;16.60;38.00;;;;;;5015051;28;21945;-64
2021/04/02 06:18:30;;;;;;;10.23;5.95;;;16.80;38.60;;;;;;5015936;28;20056;-64
2021/04/02 06:20:56;;;;;;;10.55;6.78;;;16.80;38.70;;;;;;5015026;28;20026;-65
2021/04/02 06:23:27;;;;;;;12.13;6.85;;;16.80;38.40;;;;;;5015715;28;20026;-64
2021/04/02 06:25:52;;;;;;;10.70;6.88;;;16.80;38.20;;;;;;5015771;28;20058;-65
2021/04/02 06:28:23;;;;;;;11.88;6.85;;;16.70;38.70;;;;;;5014481;28;20022;-64
2021/04/02 06:30:56;;;;;;;8.90;6.65;;;16.80;38.60;;;;;;5007132;28;20060;-64
2021/04/02 06:33:39;;;;;;;9.32;7.03;;;16.90;38.70;;;;;;5014790;28;20034;-64
2021/04/02 06:36:18;;;;;;;11.82;7.47;;;16.90;38.70;;;;;;5012025;28;20053;-65
2021/04/02 06:38:47;;;;;;;11.63;6.40;;;17.00;38.70;;;;;;5014022;28;20070;-66
2021/04/02 06:41:14;;;;;;;11.77;6.88;;;16.90;38.10;;;;;;5015495;28;20558;-65
2021/04/02 06:43:44;;;;;;;10.80;6.15;;;17.00;38.30;;;;;;5015207;28;20091;-65
2021/04/02 06:46:11;;;;;;;13.15;6.32;;;17.10;38.40;;;;;;5008946;28;20483;-64
2021/04/02 06:48:38;;;;;;;10.35;6.38;;;17.10;38.20;;;;;;5012302;28;20025;-65
2021/04/02 06:51:09;;;;;;;17.50;7.45;;;17.00;37.90;;;;;;5014022;28;20484;-65
2021/04/02 06:53:35;;;;;;;12.10;7.00;;;17.10;38.10;;;;;;5010215;28;20030;-65
2021/04/02 06:56:02;;;;;;;11.60;7.10;;;17.20;38.60;;;;;;5011095;28;20075;-65
2021/04/02 06:58:29;;;;;;;12.95;7.40;;;17.20;37.80;;;;;;5001698;28;20046;-65
2021/04/02 07:01:00;;;;;;;10.77;7.50;;;17.30;37.90;;;;;;5011808;28;20034;-65
2021/04/02 07:03:28;;;;;;;12.98;7.45;;;17.30;37.80;;;;;;5009552;28;20038;-65
2021/04/02 07:05:54;;;;;;;12.93;7.93;;;17.30;37.80;;;;;;4999113;28;20034;-64
2021/04/02 07:08:22;;;;;;;14.45;7.97;;;17.30;37.50;;;;;;5005269;28;20033;-64
2021/04/02 07:10:49;;;;;;;9.02;7.35;;;17.30;37.20;;;;;;5015289;28;20104;-64
2021/04/02 07:13:15;;;;;;;11.48;7.00;;;17.40;37.60;;;;;;5013968;28;20037;-64
2021/04/02 07:15:40;;;;;;;12.13;7.78;;;17.40;37.50;;;;;;5013050;28;20026;-64
2021/04/02 07:18:09;;;;;;;12.20;7.85;;;17.40;37.50;;;;;;5014345;28;20049;-64
2021/04/02 07:20:35;;;;;;;16.15;8.07;;;17.30;37.00;;;;;;5011584;28;20068;-64
2021/04/02 07:23:01;;;;;;;12.57;8.40;;;17.40;37.30;;;;;;5013788;28;20448;-64
2021/04/02 07:25:27;;;;;;;13.25;8.25;;;17.40;37.60;;;;;;5013378;28;20026;-64
2021/04/02 07:27:55;;;;;;;17.67;7.45;;;17.40;37.00;;;;;;5014413;28;20033;-64
2021/04/02 07:30:23;;;;;;;12.50;7.10;;;17.40;37.00;;;;;;5013018;28;20029;-62
2021/04/02 07:32:50;;;;;;;11.75;6.63;;;17.40;36.40;;;;;;5014687;28;20030;-61
2021/04/02 07:35:18;;;;;;;10.68;6.25;;;17.30;36.50;;;;;;5006753;28;20029;-62
2021/04/02 07:37:51;;;;;;;9.27;6.60;;;17.40;35.90;;;;;;5013889;28;20033;-62
2021/04/02 07:40:21;;;;;;;10.20;6.35;;;17.50;35.70;;;;;;5013541;28;20038;-62
2021/04/02 07:42:52;;;;;;;14.63;6.03;;;17.50;35.50;;;;;;5014071;28;20313;-63
2021/04/02 07:45:21;;;;;;;9.27;6.05;;;17.50;34.70;;;;;;5014337;28;20037;-63
2021/04/02 07:48:08;;;;;;;9.35;6.80;;;17.50;34.80;;;;;;5010543;28;20045;-63
2021/04/02 07:50:50;;;;;;;16.85;7.50;;;17.60;35.00;;;;;;5014442;28;20077;-63
2021/04/02 07:53:27;;;;;;;13.40;6.60;;;17.60;34.50;;;;;;5014159;28;20030;-63
2021/04/02 07:56:11;;;;;;;16.20;6.07;;;17.50;34.50;;;;;;5001023;28;20036;-64
2021/04/02 07:58:47;;;;;;;11.95;5.82;;;17.60;34.40;;;;;;5014055;28;20062;-63
2021/04/02 08:01:16;;;;;;;10.63;5.63;;;17.70;34.30;;;;;;5014029;28;20084;-63
2021/04/02 08:03:44;;;;;;;7.30;6.03;;;17.80;34.10;;;;;;5012456;28;20026;-63
2021/04/02 08:06:11;;;;;;;9.18;5.78;;;17.80;33.70;;;;;;5000277;28;20026;-63
2021/04/02 08:08:44;;;;;;;13.07;6.05;;;17.90;32.80;;;;;;5011673;28;20116;-64
2021/04/02 08:11:28;;;;;;;9.13;5.93;;;17.90;33.20;;;;;;5013808;28;20018;-63
2021/04/02 08:13:57;;;;;;;11.85;5.45;;;18.10;33.00;;;;;;5012568;28;20030;-63
2021/04/02 08:16:32;;;;;;;7.15;5.07;;;18.10;32.80;;;;;;5013643;28;20143;-63
2021/04/02 08:19:16;;;;;;;;;;;18.20;32.20;;;;;;5013072;28;20045;-63
2021/04/02 08:21:45;;;;;;;10.35;4.75;;;18.10;31.50;;;;;;5013483;28;19963;-63
2021/04/02 08:24:13;;;;;;;8.88;5.07;;;18.20;31.60;;;;;;5012348;28;20045;-64
2021/04/02 08:26:40;;;;;;;12.75;4.97;;;18.30;31.90;;;;;;5013643;28;20029;-63
2021/04/02 08:29:08;;;;;;;11.20;4.82;;;18.40;31.60;;;;;;5013701;28;20018;-63
2021/04/02 08:31:36;;;;;;;12.98;5.15;;;18.40;31.00;;;;;;5013248;28;20049;-63
2021/04/02 08:34:02;;;;;;;12.07;5.25;;;18.40;30.40;;;;;;5013703;28;20022;-63
2021/04/02 08:36:29;;;;;;;7.57;4.53;;;18.50;30.10;;;;;;5013644;28;20030;-63
2021/04/02 08:38:55;;;;;;;7.82;4.22;;;18.60;30.50;;;;;;5013557;28;20092;-63
2021/04/02 08:41:27;;;;;;;12.13;5.03;;;18.60;29.80;;;;;;5012152;28;20049;-63
2021/04/02 08:43:53;;;;;;;11.07;4.55;;;18.60;30.50;;;;;;5013508;28;20018;-63
2021/04/02 08:46:33;;;;;;;7.57;4.20;;;18.60;30.70;;;;;;5013513;28;20054;-63
2021/04/02 08:48:58;;;;;;;11.18;4.40;;;18.80;30.10;;;;;;5013283;28;20061;-63
2021/04/02 08:51:24;;;;;;;10.57;4.82;;;18.80;30.50;;;;;;5012673;28;20053;-64
2021/04/02 08:53:50;;;;;;;10.98;5.47;;;18.90;30.50;;;;;;5013533;28;20026;-64
2021/04/02 08:56:19;;;;;;;10.52;5.30;;;18.90;30.60;;;;;;5010892;28;20506;-64
2021/04/02 08:58:46;;;;;;;9.73;4.97;;;18.90;31.30;;;;;;5012906;28;20115;-64
2021/04/02 09:01:17;;;;;;;14.90;4.78;;;19.00;30.80;;;;;;5011940;28;20546;-64
2021/04/02 09:03:44;;;;;;;12.65;4.50;;;19.10;30.30;;;;;;4994237;28;20013;-64
2021/04/02 09:06:10;;;;;;;8.45;4.90;;;19.30;30.70;;;;;;5009486;28;20034;-64
2021/04/02 09:08:37;;;;;;;10.30;5.32;;;19.30;30.20;;;;;;5012161;28;20022;-64
2021/04/02 09:11:09;;;;;;;11.32;4.57;;;19.30;31.00;;;;;;5010604;28;20045;-64
2021/04/02 09:13:37;;;;;;;9.27;5.15;;;19.40;30.00;;;;;;5012964;28;20062;-64
2021/04/02 09:16:21;;;;;;;7.95;5.13;;;19.50;30.00;;;;;;5010689;28;20029;-63
2021/04/02 09:18:55;;;;;;;10.07;5.53;;;19.60;29.00;;;;;;5012301;28;20373;-64
2021/04/02 09:21:22;;;;;;;8.18;5.10;;;19.70;30.00;;;;;;5011818;28;20045;-64
2021/04/02 09:23:50;;;;;;;10.45;6.10;;;19.80;29.40;;;;;;5012337;28;20030;-64
2021/04/02 09:26:16;;;;;;;8.52;6.18;;;19.80;29.70;;;;;;5012486;28;20026;-64
2021/04/02 09:28:42;;;;;;;11.75;6.70;;;19.80;29.50;;;;;;4995284;28;20427;-64
2021/04/02 09:31:22;;;;;;;12.05;5.93;;;19.90;29.90;;;;;;5012741;28;20030;-64
2021/04/02 09:33:51;;;;;;;14.23;5.82;;;19.90;30.60;;;;;;5012290;28;20460;-64
2021/04/02 09:36:17;;;;;;;10.98;5.43;;;19.90;29.60;;;;;;5011530;28;20118;-64
2021/04/02 09:38:43;;;;;;;8.40;5.78;;;20.10;30.00;;;;;;5009942;28;20093;-64
2021/04/02 09:41:12;;;;;;;11.75;6.65;;;20.10;29.80;;;;;;5009199;28;20487;-63
2021/04/02 09:43:45;;;;;;;13.63;6.75;;;20.30;29.70;;;;;;5012652;28;20033;-64
2021/04/02 09:46:14;;;;;;;12.85;7.05;;;20.40;30.00;;;;;;5011623;28;20026;-63
2021/04/02 09:48:40;;;;;;;8.77;6.78;;;20.40;30.20;;;;;;5012760;28;20072;-63
2021/04/02 09:51:06;;;;;;;6.88;5.35;;;20.40;30.10;;;;;;5012371;28;20426;-63
2021/04/02 09:53:32;;;;;;;10.88;5.78;;;20.50;29.30;;;;;;5012773;28;20022;-63
2021/04/02 09:55:58;;;;;;;6.45;5.13;;;20.40;28.80;;;;;;5012426;28;20109;-63
2021/04/02 09:58:24;;;;;;;8.88;5.18;;;20.60;28.90;;;;;;5012526;28;20531;-62
2021/04/02 10:00:50;;;;;;;9.15;5.40;;;20.50;29.10;;;;;;5012215;28;20673;-62
2021/04/02 10:03:16;;;;;;;8.73;5.35;;;20.70;29.00;;;;;;5012486;28;20030;-62
2021/04/02 10:05:42;;;;;;;8.00;5.10;;;20.80;28.80;;;;;;5012636;28;20080;-63
2021/04/02 10:08:07;;;;;;;10.68;5.45;;;20.80;28.60;;;;;;5012561;28;20026;-62
2021/04/02 10:10:33;;;;;;;12.18;5.07;;;20.80;28.90;;;;;;5012529;28;20022;-62
2021/04/02 10:12:59;;;;;;;13.30;5.10;;;21.00;28.40;;;;;;5012626;28;20033;-62
2021/04/02 10:15:25;;;;;;;8.35;5.45;;;21.00;28.40;;;;;;5012864;28;20037;-63
2021/04/02 10:17:51;;;;;;;10.98;6.10;;;21.10;27.90;;;;;;5012385;28;20137;-63
2021/04/02 10:20:17;;;;;;;6.38;5.22;;;21.10;27.70;;;;;;5012051;28;20033;-63
2021/04/02 10:22:42;;;;;;;7.78;4.80;;;21.10;27.80;;;;;;5007695;28;20125;-63
2021/04/02 10:25:08;;;;;;;12.95;6.38;;;21.20;28.10;;;;;;5010308;28;20097;-63
2021/04/02 10:27:34;;;;;;;6.85;5.07;;;21.30;28.10;;;;;;5012157;28;20472;-63
2021/04/02 10:30:00;;;;;;;11.20;5.70;;;21.40;27.70;;;;;;5012305;28;20156;-62
2021/04/02 10:32:26;;;;;;;9.23;4.65;;;21.50;27.90;;;;;;5010930;28;20034;-63
2021/04/02 10:34:53;;;;;;;10.18;4.22;;;21.70;26.70;;;;;;5012265;28;20041;-63
2021/04/02 10:37:19;;;;;;;7.90;4.13;;;21.70;26.30;;;;;;5015008;28;20029;-63
2021/04/02 10:39:45;;;;;;;13.98;4.78;;;21.90;25.80;;;;;;5016007;28;20037;-63
2021/04/02 10:42:10;;;;;;;9.82;5.25;;;21.90;26.40;;;;;;5015674;28;20101;-63
2021/04/02 10:44:36;;;;;;;11.38;5.32;;;21.90;26.50;;;;;;5015823;28;20029;-63
2021/04/02 10:47:02;;;;;;;8.77;4.55;;;22.00;26.70;;;;;;5015719;28;20356;-63
2021/04/02 10:49:27;;;;;;;7.63;5.03;;;22.30;26.80;;;;;;5007146;28;20022;-63
2021/04/02 10:51:53;;;;;;;9.98;4.85;;;22.30;28.90;;;;;;5009862;28;20025;-63
2021/04/02 10:54:19;;;;;;;9.77;5.70;;;22.20;26.10;;;;;;5016062;28;20030;-63
2021/04/02 10:56:44;;;;;;;9.43;5.95;;;22.20;26.90;;;;;;5015375;28;20153;-63
2021/04/02 10:59:10;;;;;;;11.27;5.97;;;22.40;26.40;;;;;;5015368;28;20105;-63
2021/04/02 11:01:36;;;;;;;8.70;6.47;;;22.40;26.20;;;;;;5030424;28;20022;-63
2021/04/02 11:04:02;;;;;;;9.98;5.95;;;22.40;26.40;;;;;;5015360;28;20032;-63
2021/04/02 11:06:27;;;;;;;12.07;5.43;;;22.60;27.10;;;;;;5015042;28;20427;-62
2021/04/02 11:08:53;;;;;;;12.68;6.43;;;22.70;26.10;;;;;;5014964;28;20103;-62
2021/04/02 11:11:18;;;;;;;11.60;6.47;;;22.70;26.40;;;;;;5015082;28;20026;-62
2021/04/02 11:13:44;;;;;;;10.40;5.57;;;22.80;26.60;;;;;;5012562;28;20329;-62
2021/04/02 11:16:09;;;;;;;9.48;5.75;;;22.90;26.20;;;;;;5006442;28;20108;-62
2021/04/02 11:18:35;;;;;;;10.57;5.38;;;22.90;25.70;;;;;;5003872;28;20050;-62
2021/04/02 11:21:00;;;;;;;10.13;5.60;;;23.00;26.10;;;;;;5013068;28;20372;-63
2021/04/02 11:23:27;;;;;;;9.50;5.18;;;23.00;25.60;;;;;;5014286;28;20088;-62
2021/04/02 11:25:53;;;;;;;11.75;5.30;;;23.20;25.40;;;;;;5014806;28;20033;-64
2021/04/02 11:28:18;;;;;;;7.82;5.78;;;23.20;24.80;;;;;;5015060;28;20018;-62
2021/04/02 11:30:44;;;;;;;8.25;5.18;;;23.40;24.60;;;;;;5014575;28;20033;-62
2021/04/02 11:33:10;;;;;;;14.25;5.28;;;23.80;25.30;;;;;;5013176;28;20384;-63
2021/04/02 11:35:36;;;;;;;8.65;4.07;;;;;;;;;;5014827;28;20112;-62
2021/04/02 11:38:02;;;;;;;11.13;4.43;;;24.00;31.60;;;;;;5014663;28;20421;-62
2021/04/02 11:40:28;;;;;;;10.07;4.72;;;23.90;38.10;;;;;;5014674;28;20045;-62
2021/04/02 11:42:54;;;;;;;9.63;4.13;;;24.10;28.60;;;;;;5014334;28;20022;-62
2021/04/02 11:45:20;;;;;;;9.88;3.80;;;24.20;23.30;;;;;;5014636;28;20018;-62
2021/04/02 11:47:46;;;;;;;7.70;4.13;;;24.50;22.30;;;;;;5013777;28;20109;-62
2021/04/02 11:50:12;;;;;;;6.35;3.95;;;24.40;27.30;;;;;;5014525;28;20105;-62
2021/04/02 11:52:39;;;;;;;9.20;3.70;;;24.30;21.90;;;;;;5014068;28;20026;-62
2021/04/02 11:55:07;;;;;;;12.23;3.70;;;24.50;21.90;;;;;;5012109;28;20044;-63
2021/04/02 11:57:33;;;;;;;10.05;3.88;;;24.60;25.50;;;;;;5014273;28;20030;-63
2021/04/02 11:59:59;;;;;;;13.95;4.13;;;24.80;30.00;;;;;;5014221;28;20030;-63
2021/04/02 12:02:25;;;;;;;10.70;4.03;;;25.60;22.10;;;;;;5014209;28;20089;-62
2021/04/02 12:04:51;;;;;;;9.93;3.95;;;25.60;20.60;;;;;;5013597;28;20029;-63
2021/04/02 12:07:16;;;;;;;8.70;3.97;;;27.80;19.70;;;;;;5014195;28;20018;-63
2021/04/02 12:09:42;;;;;;;10.38;4.20;;;32.00;15.70;;;;;;5005170;28;20077;-63
2021/04/02 12:12:08;;;;;;;9.35;3.97;;;34.30;16.00;;;;;;5014089;28;20034;-63
2021/04/02 12:14:33;;;;;;;10.80;4.13;;;34.00;15.40;;;;;;5013796;28;20032;-63
2021/04/02 12:16:59;;;;;;;7.63;3.67;;;36.40;13.70;;;;;;5012465;28;20513;-63
2021/04/02 12:19:25;;;;;;;13.23;4.18;;;38.20;13.10;;;;;;5014219;28;20141;-63
2021/04/02 12:21:50;;;;;;;12.25;4.18;;;39.10;12.80;;;;;;5013819;28;20067;-63
2021/04/02 12:24:16;;;;;;;10.77;4.35;;;39.10;12.00;;;;;;5013841;28;20036;-63
2021/04/02 12:26:41;;;;;;;11.18;5.03;;;40.70;12.70;;;;;;5012416;28;20116;-63
2021/04/02 12:29:07;;;;;;;9.40;4.15;;;40.50;12.10;;;;;;5013688;28;20172;-63
2021/04/02 12:31:32;;;;;;;14.32;5.00;;;40.80;12.00;;;;;;5013748;28;20021;-63
2021/04/02 12:33:58;;;;;;;12.48;5.20;;;40.70;12.10;;;;;;5013262;28;20422;-63
2021/04/02 12:36:24;;;;;;;8.73;5.18;;;41.10;11.50;;;;;;5013817;28;20451;-63
2021/04/02 12:38:49;;;;;;;7.28;4.85;;;39.40;11.90;;;;;;5013510;28;20076;-63
2021/04/02 12:41:15;;;;;;;9.70;4.88;;;40.20;11.80;;;;;;5012452;28;20036;-63
2021/04/02 12:43:41;;;;;;;10.88;5.10;;;42.00;11.80;;;;;;5013509;28;20033;-63
2021/04/02 12:46:06;;;;;;;9.50;4.80;;;41.80;11.60;;;;;;5013362;28;20022;-63
2021/04/02 12:48:32;;;;;;;13.43;5.35;;;41.90;11.30;;;;;;5013506;28;20049;-63